Waldport, OR (97394)

01:43 PM PDT am 01. Oktober 2016 (GMT -0700)
Lake Side | | Change Station

Höhe 56 ft 44.41 °N, 124.03 °W | Updated 27 seconds ago

Scattered Clouds
Teils Wolkig
59.9 °F
gefühlte 59.9 °F
N
13.0
Wind Wechselnd Wind aus Süd
Gusts 15.0 mph

Heute
Max. -- | schwach -- °F
--% Regenrisiko
Gestern
Max. -- | schwach -- °F
Precip. -- inch
Druck 30.04 inch
Sichtweite 10.0 Meilen
Wolken Teils Wolkig 3600 ft
Teils Wolkig 4300 ft
Taupunkt 50 °F
Feuchtigkeit 69%
Regen 0.14 inch
Schneehöhe Nicht verfügbar..
7:14 AM 6:55 PM
Neumond, 1% visible
METAR KONP 012035Z AUTO 19021G29KT 10SM SCT036 SCT043 14/11 A3004 RMK AO2
Druck 30.04 inch
Sichtweite 10.0 Meilen
Wolken Teils Wolkig 3600 ft
Teils Wolkig 4300 ft
Taupunkt 50 °F
Feuchtigkeit 69%
Regen 0.14 inch
Schneehöhe Nicht verfügbar..
7:14 AM 6:55 PM
Neumond, 1% visible
METAR KONP 012035Z AUTO 19021G29KT 10SM SCT036 SCT043 14/11 A3004 RMK AO2

10-Day Weather Forecast

Almanac

Astronomie

Oct. 01, 2016 Aufgang Untergang
Genaue Zeit
Bürgerliche Dämmerung
Nautische Dämmerung
Astronomische Dämmerung
Mond
Länge des sichtbaren Lichts
Tageslänge
Tomorrow will be .
, % of the Moon is Illuminated

Heutige Rekorde

State Highs State Lows

Community

WunderPhotos

Upload Photos

1,943,017 Fotos hochgeladen!

WunderBlog® & News

Nearby

Luftqualität

  Luftqualität LQ Index Schadstoff
Not available.

Schneehöhe

Station Depth Höhe

Erdbebenaktivität

Stadt Distance Mag. Time & Date
Minimum magnitude displayed is 2.5.

küstennahe Wassertemperaturen

Ort Temperatur

Stations

Wetterstationen in der Umgebung

Stationsstandort Temp. Windchill Taupunkt Feuchtigkeit Wind Precip. Höhe Aktualisiert Art
                   

Watches & Warnings

There are currently no watches in effect.